Time;durP1;ratioP1;P1;durP2;ratioP2;P2;SDS_P1;SDS_P2;PMS_P1;PMS_P2;Temp;Humidity;BMP_temperature;BMP_pressure;BME280_temperature;BME280_humidity;BME280_pressure;Samples;Min_cycle;Max_cycle;Signal;HPM_P1;HPM_P2
2022/01/09 00:00:30;;;;;;;11.38;2.90;;;;;;;2.99;100.00;98223.91;4916801;29;20407;-86
2022/01/09 00:02:58;;;;;;;10.35;3.00;;;;;;;3.12;100.00;98234.53;4922074;29;20055;-87
2022/01/09 00:05:25;;;;;;;10.52;3.40;;;;;;;3.03;100.00;98246.97;4917112;29;20060;-85
2022/01/09 00:07:53;;;;;;;10.65;2.85;;;;;;;2.79;100.00;98242.94;4917768;29;20055;-85
2022/01/09 00:10:21;;;;;;;9.30;2.70;;;;;;;2.95;100.00;98253.41;4916972;29;20078;-86
2022/01/09 00:12:48;;;;;;;9.32;3.15;;;;;;;2.66;100.00;98240.91;4901230;29;20058;-86
2022/01/09 00:15:15;;;;;;;11.68;3.40;;;;;;;2.64;100.00;98262.56;4916787;29;20070;-86
2022/01/09 00:17:42;;;;;;;11.00;3.20;;;;;;;2.60;100.00;98254.13;4907127;29;20055;-86
2022/01/09 00:20:13;;;;;;;13.43;5.03;;;;;;;2.55;100.00;98266.41;4899714;29;20726;-87
2022/01/09 00:22:47;;;;;;;7.25;2.85;;;;;;;2.58;100.00;98260.25;4901283;29;20056;-87
2022/01/09 00:25:16;;;;;;;12.85;3.70;;;;;;;2.47;100.00;98252.97;4897994;29;20483;-87
2022/01/09 00:27:44;;;;;;;15.55;3.40;;;;;;;2.44;100.00;98245.34;4898364;29;20139;-86
2022/01/09 00:30:13;;;;;;;15.27;3.60;;;;;;;2.42;100.00;98280.75;4906039;29;20052;-86
2022/01/09 00:32:40;;;;;;;12.20;4.18;;;;;;;2.36;100.00;98291.38;4909138;29;20075;-86
2022/01/09 00:35:08;;;;;;;12.23;2.95;;;;;;;2.52;100.00;98289.78;4908709;29;20099;-87
2022/01/09 00:37:35;;;;;;;9.95;2.95;;;;;;;2.39;100.00;98249.88;4904812;29;20407;-86
2022/01/09 00:40:07;;;;;;;14.10;3.10;;;;;;;2.58;100.00;98289.50;4908554;29;20050;-86
2022/01/09 00:42:34;;;;;;;8.82;2.78;;;;;;;2.69;100.00;98276.09;4882101;29;20095;-86
2022/01/09 00:45:01;;;;;;;8.85;2.50;;;;;;;2.68;100.00;98281.34;4899875;29;20059;-86
2022/01/09 00:47:28;;;;;;;7.95;2.28;;;;;;;2.80;100.00;98289.41;4921997;29;20063;-85
2022/01/09 00:49:55;;;;;;;7.55;2.58;;;;;;;2.56;100.00;98275.81;4915548;29;20054;-85
2022/01/09 00:52:21;;;;;;;10.38;2.78;;;;;;;2.54;100.00;98269.88;4915714;29;20064;-85
2022/01/09 00:54:48;;;;;;;7.57;2.30;;;;;;;2.84;100.00;98298.69;4916811;29;20056;-86
2022/01/09 00:57:15;;;;;;;10.88;2.70;;;;;;;2.86;100.00;98303.78;4910209;29;20060;-86
2022/01/09 00:59:42;;;;;;;7.63;2.25;;;;;;;3.01;100.00;98299.66;4905367;29;20071;-86
2022/01/09 01:02:08;;;;;;;6.18;2.90;;;;;;;2.99;100.00;98312.69;4899775;29;20627;-86
2022/01/09 01:04:36;;;;;;;11.20;2.33;;;;;;;2.70;100.00;98277.78;4900169;29;20052;-85
2022/01/09 01:07:04;;;;;;;8.50;2.83;;;;;;;2.37;100.00;98237.03;4916597;29;20130;-86
2022/01/09 01:09:31;;;;;;;10.25;2.35;;;;;;;2.80;100.00;98276.47;4915703;29;20063;-86
2022/01/09 01:11:59;;;;;;;9.40;2.42;;;;;;;2.85;100.00;98287.44;4915848;29;20051;-85
2022/01/09 01:14:27;;;;;;;8.38;1.95;;;;;;;2.94;100.00;98288.78;4917052;29;20142;-85
2022/01/09 01:16:55;;;;;;;7.70;3.33;;;;;;;3.10;100.00;98304.44;4914062;29;20406;-85
2022/01/09 01:19:23;;;;;;;9.52;2.30;;;;;;;2.69;100.00;98231.34;4922699;29;20051;-85
2022/01/09 01:21:50;;;;;;;8.07;2.30;;;;;;;2.53;100.00;98234.59;4894379;29;20733;-85
2022/01/09 01:24:18;;;;;;;7.88;1.75;;;;;;;2.79;100.00;98272.19;4897564;29;20056;-85
2022/01/09 01:26:45;;;;;;;7.55;1.70;;;;;;;3.10;100.00;98317.34;4904437;29;20055;-85
2022/01/09 01:29:12;;;;;;;8.20;2.08;;;;;;;3.00;100.00;98316.09;4913942;29;20047;-86
2022/01/09 01:31:39;;;;;;;9.15;2.47;;;;;;;2.89;100.00;98321.75;4899555;29;20083;-86
2022/01/09 01:34:06;;;;;;;9.48;1.90;;;;;;;2.77;100.00;98304.19;4914764;29;20052;-85
2022/01/09 01:36:33;;;;;;;11.95;2.58;;;;;;;2.94;100.00;98319.78;4899096;29;20077;-85
2022/01/09 01:38:59;;;;;;;8.13;2.13;;;;;;;2.99;100.00;98322.16;4898582;29;20435;-85
2022/01/09 01:41:26;;;;;;;5.75;2.00;;;;;;;2.88;100.00;98322.63;4899341;29;20052;-85
2022/01/09 01:43:53;;;;;;;10.13;3.47;;;;;;;3.06;100.00;98333.91;4899697;29;20422;-85
2022/01/09 01:46:20;;;;;;;12.10;2.38;;;;;;;2.82;100.00;98310.84;4899617;29;20048;-86
2022/01/09 01:48:47;;;;;;;9.73;2.00;;;;;;;3.02;100.00;98320.25;4914950;29;20059;-85
2022/01/09 01:51:14;;;;;;;9.43;2.22;;;;;;;2.70;100.00;98274.38;4898973;29;20048;-85
2022/01/09 01:53:41;;;;;;;9.73;2.30;;;;;;;2.73;100.00;98284.59;4899155;29;20517;-84
2022/01/09 01:56:08;;;;;;;11.95;2.05;;;;;;;2.92;100.00;98294.91;4914384;29;20052;-83
2022/01/09 01:58:35;;;;;;;8.38;1.85;;;;;;;2.84;100.00;98278.00;4914005;29;20052;-83
2022/01/09 02:01:02;;;;;;;11.85;4.00;;;;;;;3.12;100.00;98309.53;4899132;29;20054;-83
2022/01/09 02:03:29;;;;;;;8.93;2.05;;;;;;;3.23;100.00;98321.03;4899340;29;20054;-82
2022/01/09 02:05:57;;;;;;;5.40;1.70;;;;;;;3.34;100.00;98320.53;4899657;29;20052;-83
2022/01/09 02:08:25;;;;;;;9.07;2.58;;;;;;;3.03;100.00;98327.13;4898351;29;20060;-83
2022/01/09 02:10:51;;;;;;;5.97;1.90;;;;;;;3.20;100.00;98333.28;4899410;29;20052;-83
2022/01/09 02:13:19;;;;;;;7.07;1.60;;;;;;;2.79;100.00;98285.13;4915172;29;20055;-83
2022/01/09 02:15:47;;;;;;;7.07;2.08;;;;;;;3.20;100.00;98344.44;4922855;29;20486;-83
2022/01/09 02:18:17;;;;;;;8.77;2.20;;;;;;;3.16;100.00;98340.31;4908780;29;20048;-83
2022/01/09 02:20:45;;;;;;;10.25;2.60;;;;;;;3.03;100.00;98327.13;4897773;29;20064;-83
2022/01/09 02:23:14;;;;;;;6.97;2.40;;;;;;;3.08;100.00;98339.84;4880486;29;20048;-82
2022/01/09 02:25:42;;;;;;;8.10;2.30;;;;;;;2.90;100.00;98313.06;4879631;29;20063;-83
2022/01/09 02:28:11;;;;;;;8.73;2.05;;;;;;;3.19;100.00;98342.78;4900639;29;20059;-83
2022/01/09 02:30:38;;;;;;;9.07;2.22;;;;;;;3.31;100.00;98351.75;4904518;29;20052;-84
2022/01/09 02:33:08;;;;;;;9.52;2.28;;;;;;;3.28;100.00;98340.69;4917474;29;20047;-83
2022/01/09 02:35:36;;;;;;;6.63;2.13;;;;;;;3.36;100.00;98351.50;4917081;29;20055;-84
2022/01/09 02:38:05;;;;;;;10.73;3.65;;;;;;;3.12;100.00;98312.94;4933675;29;20052;-83
2022/01/09 02:40:33;;;;;;;6.95;1.70;;;;;;;3.28;100.00;98318.25;4899517;29;20048;-83
2022/01/09 02:43:00;;;;;;;8.25;2.10;;;;;;;3.05;100.00;98316.72;4899071;29;20053;-83
2022/01/09 02:45:28;;;;;;;11.15;2.33;;;;;;;3.11;100.00;98324.19;4902682;29;20057;-83
2022/01/09 02:47:57;;;;;;;8.93;2.63;;;;;;;3.16;100.00;98361.00;4909884;29;20490;-83
2022/01/09 02:52:55;;;;;;;9.15;2.08;;;;;;;3.56;100.00;98373.84;4915994;29;20052;-84
2022/01/09 02:55:23;;;;;;;9.68;1.85;;;;;;;3.55;100.00;98385.97;4914263;29;20052;-83
2022/01/09 02:57:55;;;;;;;6.72;1.77;;;;;;;3.67;100.00;98381.97;4898536;29;20407;-83
2022/01/09 03:00:21;;;;;;;5.53;1.58;;;;;;;3.79;100.00;98383.16;4896003;29;20048;-83
2022/01/09 03:02:48;;;;;;;13.13;3.65;;;;;;;3.66;100.00;98361.34;4897277;29;20063;-83
2022/01/09 03:05:15;;;;;;;8.45;2.20;;;;;;;3.47;100.00;98359.63;4915145;29;20059;-83
2022/01/09 03:07:43;;;;;;;7.22;1.90;;;;;;;3.52;100.00;98383.50;4899035;29;20058;-83
2022/01/09 03:10:11;;;;;;;9.27;2.03;;;;;;;3.70;100.00;98381.84;4900865;29;20055;-83
2022/01/09 03:12:39;;;;;;;6.18;1.70;;;;;;;3.71;100.00;98380.06;4918528;29;20063;-84
2022/01/09 03:15:07;;;;;;;11.02;2.10;;;;;;;3.75;100.00;98394.53;4902412;29;20052;-84
2022/01/09 03:17:34;;;;;;;8.60;1.95;;;;;;;3.77;100.00;98395.31;4917721;29;20651;-84
2022/01/09 03:20:04;;;;;;;7.10;2.13;;;;;;;3.78;100.00;98392.66;4917803;29;20143;-83
2022/01/09 03:22:31;;;;;;;6.07;1.73;;;;;;;3.53;100.00;98399.91;4906457;29;20052;-83
2022/01/09 03:24:58;;;;;;;11.10;2.42;;;;;;;3.67;100.00;98405.25;4899056;29;20048;-83
2022/01/09 03:27:24;;;;;;;5.65;1.83;;;;;;;3.61;100.00;98408.97;4929661;29;20051;-83
2022/01/09 03:29:51;;;;;;;6.22;1.80;;;;;;;3.67;100.00;98399.25;4905877;29;20064;-83
2022/01/09 03:32:18;;;;;;;10.30;1.83;;;;;;;3.72;100.00;98405.88;4901776;29;20055;-83
2022/01/09 03:34:45;;;;;;;3.63;1.50;;;;;;;3.89;100.00;98425.78;4901455;29;20148;-83
2022/01/09 03:37:12;;;;;;;5.30;1.63;;;;;;;3.78;100.00;98428.06;4901557;29;20085;-83
2022/01/09 03:39:40;;;;;;;9.30;2.28;;;;;;;3.67;100.00;98431.16;4901234;29;20059;-82
2022/01/09 03:42:07;;;;;;;5.97;1.70;;;;;;;3.61;100.00;98424.50;4901893;29;20048;-83
2022/01/09 03:44:34;;;;;;;10.10;1.80;;;;;;;3.81;100.00;98417.56;4901727;29;20127;-83
2022/01/09 03:47:01;;;;;;;4.80;1.40;;;;;;;3.74;100.00;98439.47;4901878;29;20048;-83
2022/01/09 03:49:28;;;;;;;8.30;1.80;;;;;;;3.54;100.00;98423.13;4900660;29;20468;-83
2022/01/09 03:51:56;;;;;;;4.80;1.67;;;;;;;3.59;100.00;98435.81;4917918;29;20483;-83
2022/01/09 03:54:23;;;;;;;6.15;1.50;;;;;;;3.61;100.00;98441.75;4936706;29;20055;-83
2022/01/09 03:56:50;;;;;;;7.55;1.98;;;;;;;3.53;100.00;98447.28;4920256;29;20473;-83
2022/01/09 03:59:17;;;;;;;7.07;1.65;;;;;;;3.49;100.00;98431.97;4910070;29;20055;-83
2022/01/09 04:01:45;;;;;;;6.35;1.58;;;;;;;3.41;100.00;98430.56;4911565;29;20047;-84
2022/01/09 04:04:12;;;;;;;6.00;1.60;;;;;;;3.39;100.00;98428.97;4904499;29;20052;-83
2022/01/09 04:06:45;;;;;;;4.10;1.27;;;;;;;3.33;100.00;98437.00;4901119;29;20486;-83
2022/01/09 04:09:29;;;;;;;3.17;1.50;;;;;;;3.23;100.00;98439.16;4916398;29;20067;-83
2022/01/09 04:12:02;;;;;;;6.13;3.92;;;;;;;3.11;100.00;98448.28;4901051;29;20059;-83
2022/01/09 04:14:31;;;;;;;6.43;2.30;;;;;;;3.09;100.00;98452.69;4901306;29;20060;-83
2022/01/09 04:16:59;;;;;;;5.90;1.42;;;;;;;2.97;100.00;98441.13;4917373;29;20133;-83
2022/01/09 04:19:26;;;;;;;8.35;1.60;;;;;;;3.04;100.00;98427.03;4899745;29;20067;-83
2022/01/09 04:21:53;;;;;;;5.95;1.80;;;;;;;3.32;100.00;98461.19;4912134;29;20494;-84
2022/01/09 04:24:20;;;;;;;8.40;1.80;;;;;;;3.38;100.00;98440.22;4898021;29;20060;-84
2022/01/09 04:26:47;;;;;;;6.43;2.45;;;;;;;3.35;100.00;98422.28;4897201;29;20060;-84
2022/01/09 04:29:13;;;;;;;5.30;1.63;;;;;;;3.59;100.00;98453.94;4905493;29;20048;-84
2022/01/09 04:31:40;;;;;;;7.22;1.50;;;;;;;3.73;100.00;98446.38;4900584;29;20051;-83
2022/01/09 04:34:07;;;;;;;8.32;2.53;;;;;;;3.76;100.00;98443.66;4916468;29;20052;-83
2022/01/09 04:36:34;;;;;;;5.70;1.58;;;;;;;3.83;100.00;98458.91;4915517;29;20056;-83
2022/01/09 04:39:01;;;;;;;4.88;1.55;;;;;;;3.79;100.00;98446.09;4916161;29;20048;-84
2022/01/09 04:41:27;;;;;;;3.85;1.58;;;;;;;3.58;100.00;98431.56;4916219;29;20059;-83
2022/01/09 04:43:54;;;;;;;7.25;1.85;;;;;;;3.41;100.00;98440.09;4900677;29;20110;-84
2022/01/09 04:46:29;;;;;;;6.35;1.60;;;;;;;3.01;100.00;98413.41;4900129;29;20056;-84
2022/01/09 04:48:56;;;;;;;7.13;2.10;;;;;;;3.29;100.00;98448.41;4899701;29;20054;-83
2022/01/09 04:51:23;;;;;;;9.18;1.98;;;;;;;3.34;100.00;98459.38;4900906;29;20052;-83
2022/01/09 04:53:49;;;;;;;5.90;1.45;;;;;;;3.25;100.00;98452.03;4900298;29;20071;-83
2022/01/09 04:56:16;;;;;;;7.10;1.60;;;;;;;3.45;100.00;98467.50;4904264;29;20059;-83
2022/01/09 04:58:43;;;;;;;6.75;1.88;;;;;;;3.23;100.00;98457.28;4899758;29;20060;-83
2022/01/09 05:01:10;;;;;;;10.15;2.08;;;;;;;3.27;100.00;98458.81;4900401;29;20402;-83
2022/01/09 05:03:36;;;;;;;7.57;1.63;;;;;;;3.50;100.00;98478.47;4917110;29;20052;-83
2022/01/09 05:06:03;;;;;;;8.07;1.80;;;;;;;3.41;100.00;98461.63;4917588;29;20044;-83
2022/01/09 05:08:30;;;;;;;8.02;1.83;;;;;;;3.39;100.00;98463.44;4915400;29;20044;-83
2022/01/09 05:10:57;;;;;;;10.55;2.25;;;;;;;3.53;100.00;98465.41;4917345;29;20056;-83
2022/01/09 05:13:24;;;;;;;5.88;1.75;;;;;;;3.69;100.00;98460.38;4917212;29;20809;-83
2022/01/09 05:15:50;;;;;;;5.75;1.63;;;;;;;3.65;100.00;98461.44;4906976;29;20094;-83
2022/01/09 05:18:18;;;;;;;6.90;1.67;;;;;;;3.63;100.00;98462.41;4917078;29;20052;-83
2022/01/09 05:20:44;;;;;;;11.68;1.83;;;;;;;3.63;100.00;98468.44;4915608;29;20060;-83
2022/01/09 05:23:11;;;;;;;8.52;1.70;;;;;;;3.52;100.00;98473.22;4898712;29;20056;-83
2022/01/09 05:25:38;;;;;;;6.55;2.03;;;;;;;3.61;100.00;98463.31;4899576;29;20581;-82
2022/01/09 05:28:05;;;;;;;9.25;2.00;;;;;;;3.70;100.00;98466.38;4914868;29;20060;-83
2022/01/09 05:30:32;;;;;;;10.57;1.65;;;;;;;3.57;100.00;98448.81;4910574;29;20056;-83
2022/01/09 05:32:59;;;;;;;10.13;2.20;;;;;;;3.79;100.00;98473.75;4896620;29;20087;-83
2022/01/09 05:35:25;;;;;;;6.45;1.75;;;;;;;3.64;100.00;98469.25;4883952;29;20059;-82
2022/01/09 05:37:53;;;;;;;8.50;2.72;;;;;;;3.83;100.00;98497.75;4916128;29;20058;-82
2022/01/09 05:40:20;;;;;;;10.40;2.20;;;;;;;3.62;100.00;98497.78;4910769;29;20055;-82
2022/01/09 05:42:48;;;;;;;7.07;1.83;;;;;;;3.76;100.00;98474.72;4895731;29;20055;-83
2022/01/09 05:45:18;;;;;;;4.38;1.42;;;;;;;3.64;100.00;98474.44;4908616;29;20058;-83
2022/01/09 05:47:46;;;;;;;3.45;1.42;;;;;;;3.79;100.00;98487.53;4918566;29;20078;-83
2022/01/09 05:50:13;;;;;;;6.78;1.70;;;;;;;3.60;100.00;98491.84;4900565;29;20080;-83
2022/01/09 05:52:40;;;;;;;7.80;1.80;;;;;;;3.55;100.00;98494.63;4898143;29;20048;-82
2022/01/09 05:55:07;;;;;;;6.95;1.70;;;;;;;3.45;100.00;98490.78;4899267;29;20052;-83
2022/01/09 05:57:34;;;;;;;6.10;1.80;;;;;;;3.32;100.00;98493.06;4899458;29;20066;-83
2022/01/09 06:00:01;;;;;;;5.55;1.67;;;;;;;3.50;100.00;98508.69;4898231;29;20055;-83
2022/01/09 06:02:27;;;;;;;10.52;2.15;;;;;;;3.33;100.00;98514.59;4914645;29;20067;-83
2022/01/09 06:04:54;;;;;;;9.98;1.67;;;;;;;3.41;100.00;98528.88;4914792;29;20056;-83
2022/01/09 06:07:21;;;;;;;8.00;2.30;;;;;;;3.12;100.00;98521.56;4899211;29;20058;-83
2022/01/09 06:09:48;;;;;;;6.97;1.52;;;;;;;3.31;100.00;98521.59;4898550;29;20060;-83
2022/01/09 06:12:14;;;;;;;4.20;1.40;;;;;;;3.23;100.00;98530.50;4899453;29;20048;-83
2022/01/09 06:14:41;;;;;;;7.47;2.05;;;;;;;3.20;100.00;98509.13;4915187;29;20140;-83
2022/01/09 06:17:09;;;;;;;5.60;1.45;;;;;;;3.14;100.00;98481.78;4898935;29;20056;-83
2022/01/09 06:19:36;;;;;;;10.18;2.08;;;;;;;3.25;100.00;98525.28;4914696;29;20056;-83
2022/01/09 06:22:03;;;;;;;9.77;2.75;;;;;;;3.02;100.00;98492.66;4913402;29;20414;-83
2022/01/09 06:24:30;;;;;;;5.03;1.67;;;;;;;3.21;100.00;98510.81;4899076;29;20060;-83
2022/01/09 06:26:56;;;;;;;9.93;1.73;;;;;;;3.30;100.00;98531.09;4899389;29;20415;-83
2022/01/09 06:29:23;;;;;;;5.75;1.70;;;;;;;3.15;100.00;98517.09;4898309;29;20059;-83
2022/01/09 06:31:50;;;;;;;7.68;2.30;;;;;;;3.33;100.00;98527.53;4899137;29;20398;-83
2022/01/09 06:34:18;;;;;;;9.07;1.95;;;;;;;3.22;100.00;98543.50;4921269;29;20058;-83
2022/01/09 06:36:45;;;;;;;7.40;1.98;;;;;;;3.00;100.00;98513.41;4904396;29;20471;-83
2022/01/09 06:39:12;;;;;;;7.55;1.65;;;;;;;3.13;100.00;98534.38;4897902;29;20044;-83
2022/01/09 06:41:38;;;;;;;11.93;2.00;;;;;;;3.19;100.00;98554.84;4915766;29;20048;-83
2022/01/09 06:44:05;;;;;;;8.63;1.88;;;;;;;2.98;100.00;98511.78;4917913;29;20055;-83
2022/01/09 06:46:32;;;;;;;7.90;2.58;;;;;;;3.19;100.00;98528.16;4919192;29;20136;-83
2022/01/09 06:48:59;;;;;;;6.90;1.60;;;;;;;3.01;100.00;98522.84;4902081;29;20110;-83
2022/01/09 06:51:26;;;;;;;9.73;1.90;;;;;;;3.11;100.00;98535.38;4902796;29;20050;-83
2022/01/09 06:53:52;;;;;;;6.28;1.88;;;;;;;2.98;100.00;98525.56;4902776;29;20103;-83
2022/01/09 06:56:19;;;;;;;8.23;2.13;;;;;;;2.95;100.00;98537.75;4916576;29;20052;-83
2022/01/09 06:58:46;;;;;;;6.97;1.75;;;;;;;2.94;100.00;98541.25;4914646;29;20055;-83
2022/01/09 07:01:13;;;;;;;6.30;1.58;;;;;;;3.08;100.00;98562.22;4902277;29;20056;-83
2022/01/09 07:03:40;;;;;;;13.63;1.75;;;;;;;3.04;100.00;98563.22;4902553;29;20459;-83
2022/01/09 07:06:07;;;;;;;5.75;1.60;;;;;;;3.02;100.00;98563.28;4919159;29;20109;-83
2022/01/09 07:08:34;;;;;;;4.65;1.70;;;;;;;2.92;100.00;98545.63;4901500;29;20056;-82
2022/01/09 07:11:03;;;;;;;11.30;1.90;;;;;;;2.92;100.00;98574.94;4919666;29;20506;-83
2022/01/09 07:13:31;;;;;;;5.82;1.80;;;;;;;2.79;100.00;98578.91;4901769;29;20051;-83
2022/01/09 07:15:58;;;;;;;5.57;1.60;;;;;;;2.88;100.00;98570.78;4912620;29;20055;-82
2022/01/09 07:18:25;;;;;;;7.00;1.98;;;;;;;2.88;100.00;98590.63;4914385;29;20047;-82
2022/01/09 07:20:52;;;;;;;4.57;1.40;;;;;;;2.73;100.00;98581.75;4918661;29;20056;-82
2022/01/09 07:23:19;;;;;;;6.90;1.92;;;;;;;2.64;100.00;98578.63;4900878;29;20521;-82
2022/01/09 07:25:46;;;;;;;6.28;1.70;;;;;;;2.59;100.00;98585.72;4918636;29;20055;-82
2022/01/09 07:28:12;;;;;;;5.53;1.63;;;;;;;2.61;100.00;98593.41;4901579;29;20055;-82
2022/01/09 07:30:39;;;;;;;6.47;3.15;;;;;;;2.57;100.00;98603.03;4900862;29;20067;-82
2022/01/09 07:33:06;;;;;;;5.38;1.50;;;;;;;2.61;100.00;98603.75;4890863;29;20052;-82
2022/01/09 07:35:33;;;;;;;7.70;1.80;;;;;;;2.64;100.00;98591.53;4903343;29;20136;-82
2022/01/09 07:38:00;;;;;;;9.15;2.55;;;;;;;2.53;100.00;98585.09;4910859;29;20048;-82
2022/01/09 07:40:28;;;;;;;8.23;1.90;;;;;;;2.66;100.00;98600.06;4912953;29;20053;-82
2022/01/09 07:42:55;;;;;;;9.38;1.98;;;;;;;2.65;100.00;98590.63;4887630;29;20051;-82
2022/01/09 07:45:22;;;;;;;7.00;1.67;;;;;;;2.63;100.00;98596.75;4897187;29;20082;-82
2022/01/09 07:47:49;;;;;;;5.68;2.00;;;;;;;2.56;100.00;98619.41;4898816;29;20478;-82
2022/01/09 07:50:16;;;;;;;9.73;1.70;;;;;;;2.56;100.00;98606.50;4896881;29;20076;-83
2022/01/09 07:52:43;;;;;;;10.15;2.33;;;;;;;2.31;100.00;98587.69;4894715;29;20136;-81
2022/01/09 07:55:11;;;;;;;5.72;2.70;;;;;;;2.56;100.00;98605.66;4903674;29;20059;-81
2022/01/09 07:57:38;;;;;;;5.70;1.90;;;;;;;2.69;100.00;98608.59;4907750;29;20072;-81
2022/01/09 08:00:09;;;;;;;11.23;2.20;;;;;;;2.67;100.00;98616.41;4910804;29;20056;-81
2022/01/09 08:02:36;;;;;;;7.72;1.90;;;;;;;2.63;100.00;98617.44;4907500;29;20048;-81
2022/01/09 08:05:04;;;;;;;12.90;2.90;;;;;;;2.69;100.00;98614.59;4893219;29;20088;-83
2022/01/09 08:07:30;;;;;;;7.65;1.70;;;;;;;2.68;100.00;98628.44;4902520;29;20045;-82
2022/01/09 08:09:57;;;;;;;7.05;1.90;;;;;;;2.71;100.00;98637.78;4907668;29;20044;-81
2022/01/09 08:12:24;;;;;;;11.50;2.10;;;;;;;2.46;100.00;98600.84;4892733;29;20052;-81
2022/01/09 08:14:51;;;;;;;12.80;2.25;;;;;;;2.41;100.00;98640.69;4912220;29;20048;-82
2022/01/09 08:17:20;;;;;;;8.52;2.00;;;;;;;2.15;100.00;98623.56;4906941;29;20052;-81
2022/01/09 08:19:49;;;;;;;10.57;2.05;;;;;;;2.33;100.00;98665.94;4891041;29;20061;-82
2022/01/09 08:22:16;;;;;;;11.07;1.98;;;;;;;2.16;100.00;98656.22;4909200;29;20546;-82
2022/01/09 08:24:43;;;;;;;5.28;1.75;;;;;;;2.24;100.00;98682.63;4910757;29;20058;-82
2022/01/09 08:27:10;;;;;;;9.30;2.25;;;;;;;2.19;100.00;98676.78;4914650;29;20071;-83
2022/01/09 08:29:39;;;;;;;9.55;1.88;;;;;;;2.23;100.00;98678.34;4911084;29;20674;-83
2022/01/09 08:32:07;;;;;;;5.22;1.88;;;;;;;1.99;100.00;98686.06;4911200;29;20063;-82
2022/01/09 08:34:34;;;;;;;7.47;1.83;;;;;;;1.80;100.00;98662.63;4897480;29;20133;-83
2022/01/09 08:37:01;;;;;;;5.55;2.03;;;;;;;1.88;100.00;98652.06;4912292;29;20047;-82
2022/01/09 08:39:28;;;;;;;4.20;1.63;;;;;;;2.14;100.00;98687.25;4892933;29;20056;-82
2022/01/09 08:41:55;;;;;;;7.10;1.80;;;;;;;1.99;100.00;98675.75;4892849;29;20056;-83
2022/01/09 08:44:21;;;;;;;5.97;1.90;;;;;;;1.95;100.00;98693.97;4911022;29;20051;-83
2022/01/09 08:46:48;;;;;;;5.13;2.10;;;;;;;2.00;100.00;98702.41;4905583;29;20601;-83
2022/01/09 08:49:15;;;;;;;11.20;2.15;;;;;;;1.90;100.00;98688.97;4899589;29;20147;-83
2022/01/09 08:51:42;;;;;;;12.13;3.22;;;;;;;2.18;100.00;98693.16;4914935;29;20052;-83
2022/01/09 08:54:09;;;;;;;4.63;1.83;;;;;;;2.30;100.00;98684.13;4902180;29;20048;-83
2022/01/09 08:56:38;;;;;;;8.48;2.00;;;;;;;2.32;100.00;98688.34;4907290;29;20055;-83
2022/01/09 08:59:05;;;;;;;12.02;2.00;;;;;;;2.29;100.00;98701.38;4904046;29;20052;-83
2022/01/09 09:01:43;;;;;;;7.00;1.90;;;;;;;2.35;100.00;98702.88;4910059;29;20059;-84
2022/01/09 09:04:11;;;;;;;5.40;2.00;;;;;;;2.43;100.00;98701.69;4908512;29;20047;-83
2022/01/09 09:06:38;;;;;;;6.90;1.90;;;;;;;2.63;100.00;98716.44;4908689;29;20431;-83
2022/01/09 09:09:06;;;;;;;8.27;1.98;;;;;;;2.88;100.00;98719.88;4921831;29;20044;-83
2022/01/09 09:11:33;;;;;;;7.60;2.60;;;;;;;3.04;100.00;98713.19;4908960;29;20402;-82
2022/01/09 09:14:01;;;;;;;8.88;2.42;;;;;;;2.82;100.00;98700.28;4908756;29;20049;-83
2022/01/09 09:16:28;;;;;;;11.88;2.15;;;;;;;2.75;100.00;98683.31;4913106;29;20098;-84
2022/01/09 09:18:55;;;;;;;8.77;1.98;;;;;;;2.72;100.00;98706.69;4890638;29;20048;-82
2022/01/09 09:21:22;;;;;;;8.15;2.83;;;;;;;2.80;100.00;98713.25;4910262;29;20125;-82
2022/01/09 09:23:49;;;;;;;8.88;2.30;;;;;;;2.55;100.00;98672.00;4912484;29;20044;-82
2022/01/09 09:26:19;;;;;;;7.95;2.10;;;;;;;2.25;100.00;98655.91;4905083;29;20395;-82
2022/01/09 09:28:46;;;;;;;6.80;1.73;;;;;;;2.56;100.00;98709.84;4925928;29;20599;-84
2022/01/09 09:31:13;;;;;;;5.05;1.70;;;;;;;2.36;100.00;98687.34;4893504;29;20052;-83
2022/01/09 09:33:40;;;;;;;9.48;1.90;;;;;;;2.30;100.00;98695.28;4907125;29;20459;-83
2022/01/09 09:36:07;;;;;;;6.15;2.00;;;;;;;2.46;100.00;98696.44;4915710;29;20066;-83
2022/01/09 09:38:34;;;;;;;8.45;2.05;;;;;;;2.45;100.00;98714.56;4890580;29;20052;-83
2022/01/09 09:41:01;;;;;;;10.90;2.42;;;;;;;2.31;100.00;98707.31;4899640;29;20075;-83
2022/01/09 09:43:28;;;;;;;12.43;2.88;;;;;;;2.33;100.00;98722.75;4899487;29;20052;-83
2022/01/09 09:45:55;;;;;;;7.90;2.50;;;;;;;2.46;100.00;98734.31;4916687;29;20566;-83
2022/01/09 09:48:22;;;;;;;15.02;3.53;;;;;;;2.10;100.00;98716.66;4915575;29;20063;-83
2022/01/09 09:50:49;;;;;;;11.48;2.20;;;;;;;2.28;100.00;98743.56;4898941;29;20091;-83
2022/01/09 09:53:16;;;;;;;7.97;2.40;;;;;;;2.26;100.00;98730.72;4899443;29;20062;-82
2022/01/09 09:55:44;;;;;;;9.88;3.53;;;;;;;2.41;100.00;98747.41;4924182;29;20062;-83
2022/01/09 09:58:12;;;;;;;13.55;3.17;;;;;;;2.25;100.00;98723.03;4906705;29;20059;-82
2022/01/09 10:00:39;;;;;;;8.13;2.35;;;;;;;2.45;100.00;98748.97;4915431;29;20589;-83
2022/01/09 10:03:07;;;;;;;9.88;2.75;;;;;;;2.47;100.00;98747.19;4916102;29;20044;-83
2022/01/09 10:05:37;;;;;;;13.63;2.80;;;;;;;2.59;100.00;98757.97;4899401;29;20052;-83
2022/01/09 10:08:09;;;;;;;12.77;3.25;;;;;;;2.50;100.00;98747.97;4899181;29;20052;-84
2022/01/09 10:10:38;;;;;;;8.70;2.60;;;;;;;2.78;100.00;98761.56;4916344;29;20052;-85
2022/01/09 10:13:14;;;;;;;8.25;2.80;;;;;;;2.94;100.00;98761.84;4931849;29;20047;-85
2022/01/09 10:15:50;;;;;;;14.70;3.75;;;;;;;2.92;100.00;98763.66;4907242;29;20055;-85
2022/01/09 10:18:40;;;;;;;9.50;2.60;;;;;;;3.18;100.00;98764.38;4906651;29;20052;-85
2022/01/09 10:21:13;;;;;;;9.05;2.60;;;;;;;3.28;100.00;98770.03;4905983;29;20054;-85
2022/01/09 10:23:59;;;;;;;12.90;3.90;;;;;;;3.19;100.00;98779.84;4895880;29;20661;-84
2022/01/09 10:26:28;;;;;;;11.48;3.42;;;;;;;3.20;100.00;98778.91;4924962;29;20055;-84
2022/01/09 10:28:55;;;;;;;8.48;3.22;;;;;;;3.25;100.00;98773.56;4897842;29;20048;-84
2022/01/09 10:31:21;;;;;;;8.93;3.10;;;;;;;3.35;100.00;98789.59;4899163;29;20052;-84
2022/01/09 10:34:02;;;;;;;11.43;4.18;;;;;;;3.51;100.00;98795.84;4903533;29;20066;-84
2022/01/09 10:36:38;;;;;;;13.73;3.60;;;;;;;3.49;100.00;98786.44;4917672;29;20477;-84
2022/01/09 10:39:08;;;;;;;12.07;3.78;;;;;;;3.51;100.00;98772.56;4913590;29;20052;-85
2022/01/09 10:41:51;;;;;;;9.45;3.45;;;;;;;3.61;100.00;98788.53;4896254;29;20052;-84
2022/01/09 10:44:22;;;;;;;10.65;3.47;;;;;;;3.61;100.00;98784.22;4909412;29;20052;-85
2022/01/09 10:47:14;;;;;;;12.27;3.50;;;;;;;3.62;100.00;98772.13;4910678;29;20131;-84
2022/01/09 10:49:50;;;;;;;10.85;3.08;;;;;;;3.78;100.00;98780.94;4904746;29;20265;-85
2022/01/09 10:52:19;;;;;;;8.85;3.10;;;;;;;3.95;100.00;98784.59;4931377;29;20082;-85
2022/01/09 10:54:48;;;;;;;12.63;3.22;;;;;;;4.02;100.00;98783.44;4926905;29;20414;-85
2022/01/09 10:57:16;;;;;;;12.52;3.90;;;;;;;4.11;100.00;98797.75;4921988;29;20055;-85
2022/01/09 10:59:43;;;;;;;13.25;5.10;;;;;;;4.01;100.00;98767.94;4905157;29;20075;-85
2022/01/09 11:02:12;;;;;;;17.02;5.50;;;;;;;4.02;100.00;98788.59;4917482;29;20059;-84
2022/01/09 11:04:43;;;;;;;11.10;4.18;;;;;;;4.00;100.00;98787.81;4916280;29;20054;-84
2022/01/09 11:07:12;;;;;;;10.27;3.83;;;;;;;4.11;100.00;98795.16;4916315;29;20087;-84
2022/01/09 11:09:44;;;;;;;11.15;4.57;;;;;;;4.06;100.00;98799.69;4904462;29;20314;-84
2022/01/09 11:12:16;;;;;;;14.25;5.45;;;;;;;3.94;100.00;98778.53;4911623;29;20475;-84
2022/01/09 11:14:43;;;;;;;11.73;4.32;;;;;;;4.17;100.00;98806.06;4911710;29;20390;-84
2022/01/09 11:17:11;;;;;;;10.48;3.45;;;;;;;3.75;100.00;98798.34;4895607;29;20131;-85
2022/01/09 11:19:38;;;;;;;15.38;4.70;;;;;;;3.89;100.00;98806.38;4913699;29;20047;-85
2022/01/09 11:22:07;;;;;;;10.80;3.40;;;;;;;4.09;100.00;98805.56;4900129;29;20134;-86
2022/01/09 11:24:34;;;;;;;14.30;3.42;;;;;;;4.18;100.00;98814.72;4912416;29;20058;-86
2022/01/09 11:37:44;;;;;;;20.13;3.92;;;;;;;4.05;100.00;98751.38;5184654;27;20376;-86
2022/01/09 11:40:23;;;;;;;10.48;2.50;;;;;;;4.62;100.00;98822.31;5170282;27;20050;-85
2022/01/09 11:43:15;;;;;;;9.73;1.98;;;;;;;4.54;100.00;98812.25;5151478;27;20133;-85
2022/01/09 11:45:50;;;;;;;12.68;3.63;;;;;;;4.50;100.00;98813.31;5162997;27;20046;-85
2022/01/09 11:48:20;;;;;;;11.23;3.42;;;;;;;4.45;100.00;98830.81;5153117;27;20059;-85